sensor_id;sensor_type;location;lat;lon;timestamp;P1;durP1;ratioP1;P2;durP2;ratioP2
44110;SDS011;29774;52.664;5.074;2024-03-06T00:00:54;21.45;;;14.00;;
44110;SDS011;29774;52.664;5.074;2024-03-06T00:03:19;18.17;;;13.35;;
44110;SDS011;29774;52.664;5.074;2024-03-06T00:05:45;19.30;;;12.75;;
44110;SDS011;29774;52.664;5.074;2024-03-06T00:08:10;19.20;;;13.00;;
44110;SDS011;29774;52.664;5.074;2024-03-06T00:10:36;19.40;;;12.40;;
44110;SDS011;29774;52.664;5.074;2024-03-06T00:13:01;18.30;;;12.40;;
44110;SDS011;29774;52.664;5.074;2024-03-06T00:15:27;14.13;;;11.23;;
44110;SDS011;29774;52.664;5.074;2024-03-06T00:17:53;17.00;;;11.23;;
44110;SDS011;29774;52.664;5.074;2024-03-06T00:20:18;14.85;;;11.45;;
44110;SDS011;29774;52.664;5.074;2024-03-06T00:22:44;16.23;;;11.20;;
44110;SDS011;29774;52.664;5.074;2024-03-06T00:25:09;15.77;;;11.55;;
44110;SDS011;29774;52.664;5.074;2024-03-06T00:27:35;16.40;;;11.35;;
44110;SDS011;29774;52.664;5.074;2024-03-06T00:30:01;13.73;;;10.77;;
44110;SDS011;29774;52.664;5.074;2024-03-06T00:32:27;17.60;;;11.45;;
44110;SDS011;29774;52.664;5.074;2024-03-06T00:34:53;14.65;;;11.10;;
44110;SDS011;29774;52.664;5.074;2024-03-06T00:37:19;16.23;;;11.07;;
44110;SDS011;29774;52.664;5.074;2024-03-06T00:39:44;15.52;;;10.93;;
44110;SDS011;29774;52.664;5.074;2024-03-06T00:42:10;14.43;;;11.48;;
44110;SDS011;29774;52.664;5.074;2024-03-06T00:44:38;17.45;;;11.70;;
44110;SDS011;29774;52.664;5.074;2024-03-06T00:47:04;14.40;;;11.43;;
44110;SDS011;29774;52.664;5.074;2024-03-06T00:49:29;16.70;;;10.93;;
44110;SDS011;29774;52.664;5.074;2024-03-06T00:51:56;16.65;;;11.63;;
44110;SDS011;29774;52.664;5.074;2024-03-06T00:54:21;13.50;;;10.48;;
44110;SDS011;29774;52.664;5.074;2024-03-06T00:56:47;16.85;;;11.68;;
44110;SDS011;29774;52.664;5.074;2024-03-06T00:59:12;18.95;;;12.25;;
44110;SDS011;29774;52.664;5.074;2024-03-06T01:01:38;13.93;;;11.32;;
44110;SDS011;29774;52.664;5.074;2024-03-06T01:04:04;14.23;;;10.75;;
44110;SDS011;29774;52.664;5.074;2024-03-06T01:06:30;15.07;;;10.95;;
44110;SDS011;29774;52.664;5.074;2024-03-06T01:08:55;16.50;;;10.98;;
44110;SDS011;29774;52.664;5.074;2024-03-06T01:11:22;14.73;;;10.50;;
44110;SDS011;29774;52.664;5.074;2024-03-06T01:13:47;14.07;;;10.75;;
44110;SDS011;29774;52.664;5.074;2024-03-06T01:16:13;14.43;;;10.38;;
44110;SDS011;29774;52.664;5.074;2024-03-06T01:18:39;14.85;;;10.75;;
44110;SDS011;29774;52.664;5.074;2024-03-06T01:21:05;15.57;;;10.18;;
44110;SDS011;29774;52.664;5.074;2024-03-06T01:23:30;12.55;;;10.02;;
44110;SDS011;29774;52.664;5.074;2024-03-06T01:25:56;12.90;;;10.38;;
44110;SDS011;29774;52.664;5.074;2024-03-06T01:28:21;12.48;;;9.68;;
44110;SDS011;29774;52.664;5.074;2024-03-06T01:30:47;12.13;;;8.48;;
44110;SDS011;29774;52.664;5.074;2024-03-06T01:33:12;12.00;;;8.75;;
44110;SDS011;29774;52.664;5.074;2024-03-06T01:35:38;8.75;;;7.00;;
44110;SDS011;29774;52.664;5.074;2024-03-06T01:38:04;9.40;;;7.75;;
44110;SDS011;29774;52.664;5.074;2024-03-06T01:40:30;13.00;;;9.00;;
44110;SDS011;29774;52.664;5.074;2024-03-06T01:42:56;10.32;;;7.70;;
44110;SDS011;29774;52.664;5.074;2024-03-06T01:45:22;10.40;;;8.02;;
44110;SDS011;29774;52.664;5.074;2024-03-06T01:47:47;9.15;;;6.90;;
44110;SDS011;29774;52.664;5.074;2024-03-06T01:50:13;10.77;;;7.30;;
44110;SDS011;29774;52.664;5.074;2024-03-06T01:52:39;10.55;;;8.07;;
44110;SDS011;29774;52.664;5.074;2024-03-06T01:55:07;10.95;;;7.53;;
44110;SDS011;29774;52.664;5.074;2024-03-06T01:57:33;10.10;;;7.97;;
44110;SDS011;29774;52.664;5.074;2024-03-06T01:59:59;9.32;;;7.03;;
44110;SDS011;29774;52.664;5.074;2024-03-06T02:02:27;10.93;;;7.28;;
44110;SDS011;29774;52.664;5.074;2024-03-06T02:04:53;11.85;;;7.60;;
44110;SDS011;29774;52.664;5.074;2024-03-06T02:07:19;9.65;;;7.43;;
44110;SDS011;29774;52.664;5.074;2024-03-06T02:09:46;8.32;;;6.80;;
44110;SDS011;29774;52.664;5.074;2024-03-06T02:12:12;8.98;;;7.50;;
44110;SDS011;29774;52.664;5.074;2024-03-06T02:14:38;8.32;;;6.65;;
44110;SDS011;29774;52.664;5.074;2024-03-06T02:17:04;8.00;;;6.63;;
44110;SDS011;29774;52.664;5.074;2024-03-06T02:22:08;7.45;;;6.60;;
44110;SDS011;29774;52.664;5.074;2024-03-06T02:24:35;8.23;;;6.50;;
44110;SDS011;29774;52.664;5.074;2024-03-06T02:27:02;9.77;;;7.00;;
44110;SDS011;29774;52.664;5.074;2024-03-06T02:29:31;7.90;;;6.32;;
44110;SDS011;29774;52.664;5.074;2024-03-06T02:31:57;7.32;;;6.25;;
44110;SDS011;29774;52.664;5.074;2024-03-06T02:34:23;7.78;;;6.43;;
44110;SDS011;29774;52.664;5.074;2024-03-06T02:36:50;8.80;;;6.05;;
44110;SDS011;29774;52.664;5.074;2024-03-06T02:39:16;7.03;;;5.88;;
44110;SDS011;29774;52.664;5.074;2024-03-06T02:41:42;8.10;;;6.13;;
44110;SDS011;29774;52.664;5.074;2024-03-06T02:44:08;7.88;;;5.45;;
44110;SDS011;29774;52.664;5.074;2024-03-06T02:46:34;6.80;;;5.80;;
44110;SDS011;29774;52.664;5.074;2024-03-06T02:48:59;8.32;;;5.50;;
44110;SDS011;29774;52.664;5.074;2024-03-06T02:51:25;8.48;;;6.10;;
44110;SDS011;29774;52.664;5.074;2024-03-06T02:53:51;7.15;;;5.40;;
44110;SDS011;29774;52.664;5.074;2024-03-06T02:56:18;6.90;;;5.30;;
44110;SDS011;29774;52.664;5.074;2024-03-06T02:58:44;8.00;;;5.50;;
44110;SDS011;29774;52.664;5.074;2024-03-06T03:01:10;9.30;;;6.38;;
44110;SDS011;29774;52.664;5.074;2024-03-06T03:03:36;10.00;;;7.10;;
44110;SDS011;29774;52.664;5.074;2024-03-06T03:06:01;8.27;;;6.10;;
44110;SDS011;29774;52.664;5.074;2024-03-06T03:08:27;8.63;;;6.80;;
44110;SDS011;29774;52.664;5.074;2024-03-06T03:10:53;7.97;;;6.25;;
44110;SDS011;29774;52.664;5.074;2024-03-06T03:13:18;7.80;;;6.13;;
44110;SDS011;29774;52.664;5.074;2024-03-06T03:15:44;8.15;;;6.47;;
44110;SDS011;29774;52.664;5.074;2024-03-06T03:18:10;8.43;;;5.95;;
44110;SDS011;29774;52.664;5.074;2024-03-06T03:20:35;7.13;;;6.43;;
44110;SDS011;29774;52.664;5.074;2024-03-06T03:23:01;7.70;;;6.60;;
44110;SDS011;29774;52.664;5.074;2024-03-06T03:25:27;8.23;;;6.70;;
44110;SDS011;29774;52.664;5.074;2024-03-06T03:27:52;9.20;;;7.00;;
44110;SDS011;29774;52.664;5.074;2024-03-06T03:30:18;10.35;;;7.10;;
44110;SDS011;29774;52.664;5.074;2024-03-06T03:32:47;7.50;;;6.35;;
44110;SDS011;29774;52.664;5.074;2024-03-06T03:35:13;10.02;;;7.55;;
44110;SDS011;29774;52.664;5.074;2024-03-06T03:37:39;8.80;;;7.38;;
44110;SDS011;29774;52.664;5.074;2024-03-06T03:40:05;9.55;;;7.60;;
44110;SDS011;29774;52.664;5.074;2024-03-06T03:42:32;11.43;;;7.40;;
44110;SDS011;29774;52.664;5.074;2024-03-06T03:44:57;10.00;;;7.50;;
44110;SDS011;29774;52.664;5.074;2024-03-06T03:47:23;10.63;;;8.73;;
44110;SDS011;29774;52.664;5.074;2024-03-06T03:49:48;10.85;;;8.10;;
44110;SDS011;29774;52.664;5.074;2024-03-06T03:52:14;11.07;;;8.23;;
44110;SDS011;29774;52.664;5.074;2024-03-06T03:54:40;9.13;;;7.88;;
44110;SDS011;29774;52.664;5.074;2024-03-06T03:57:06;12.38;;;9.02;;
44110;SDS011;29774;52.664;5.074;2024-03-06T03:59:33;12.27;;;8.18;;
44110;SDS011;29774;52.664;5.074;2024-03-06T04:01:59;13.60;;;9.00;;
44110;SDS011;29774;52.664;5.074;2024-03-06T04:04:24;10.32;;;8.05;;
44110;SDS011;29774;52.664;5.074;2024-03-06T04:06:50;14.32;;;9.32;;
44110;SDS011;29774;52.664;5.074;2024-03-06T04:09:16;11.88;;;8.48;;
44110;SDS011;29774;52.664;5.074;2024-03-06T04:11:41;13.75;;;8.88;;
44110;SDS011;29774;52.664;5.074;2024-03-06T04:14:07;14.23;;;9.38;;
44110;SDS011;29774;52.664;5.074;2024-03-06T04:16:33;15.23;;;11.10;;
44110;SDS011;29774;52.664;5.074;2024-03-06T04:18:59;20.33;;;12.00;;
44110;SDS011;29774;52.664;5.074;2024-03-06T04:21:25;17.77;;;11.50;;
44110;SDS011;29774;52.664;5.074;2024-03-06T04:23:51;20.23;;;11.52;;
44110;SDS011;29774;52.664;5.074;2024-03-06T04:26:16;17.92;;;12.10;;
44110;SDS011;29774;52.664;5.074;2024-03-06T04:28:42;18.90;;;11.65;;
44110;SDS011;29774;52.664;5.074;2024-03-06T04:31:08;18.88;;;12.75;;
44110;SDS011;29774;52.664;5.074;2024-03-06T04:33:34;22.17;;;13.32;;
44110;SDS011;29774;52.664;5.074;2024-03-06T04:36:01;23.80;;;14.40;;
44110;SDS011;29774;52.664;5.074;2024-03-06T04:38:27;22.10;;;13.43;;
44110;SDS011;29774;52.664;5.074;2024-03-06T04:40:54;21.10;;;13.73;;
44110;SDS011;29774;52.664;5.074;2024-03-06T04:43:19;24.33;;;14.75;;
44110;SDS011;29774;52.664;5.074;2024-03-06T04:45:45;23.70;;;16.30;;
44110;SDS011;29774;52.664;5.074;2024-03-06T04:48:11;28.30;;;15.88;;
44110;SDS011;29774;52.664;5.074;2024-03-06T04:50:37;25.60;;;15.48;;
44110;SDS011;29774;52.664;5.074;2024-03-06T04:53:02;25.83;;;16.88;;
44110;SDS011;29774;52.664;5.074;2024-03-06T04:55:28;24.98;;;15.45;;
44110;SDS011;29774;52.664;5.074;2024-03-06T04:57:55;25.38;;;16.60;;
44110;SDS011;29774;52.664;5.074;2024-03-06T05:00:21;27.77;;;16.90;;
44110;SDS011;29774;52.664;5.074;2024-03-06T05:02:47;25.92;;;16.30;;
44110;SDS011;29774;52.664;5.074;2024-03-06T05:05:14;21.35;;;15.20;;
44110;SDS011;29774;52.664;5.074;2024-03-06T05:07:40;27.27;;;16.75;;
44110;SDS011;29774;52.664;5.074;2024-03-06T05:10:05;28.10;;;17.75;;
44110;SDS011;29774;52.664;5.074;2024-03-06T05:12:33;29.35;;;18.10;;
44110;SDS011;29774;52.664;5.074;2024-03-06T05:14:59;29.77;;;17.05;;
44110;SDS011;29774;52.664;5.074;2024-03-06T05:17:25;34.47;;;18.58;;
44110;SDS011;29774;52.664;5.074;2024-03-06T05:19:51;25.67;;;17.60;;
44110;SDS011;29774;52.664;5.074;2024-03-06T05:22:16;30.08;;;17.35;;
44110;SDS011;29774;52.664;5.074;2024-03-06T05:24:43;27.00;;;18.27;;
44110;SDS011;29774;52.664;5.074;2024-03-06T05:27:09;29.25;;;18.38;;
44110;SDS011;29774;52.664;5.074;2024-03-06T05:29:38;31.17;;;18.77;;
44110;SDS011;29774;52.664;5.074;2024-03-06T05:32:04;29.40;;;19.70;;
44110;SDS011;29774;52.664;5.074;2024-03-06T05:34:32;30.17;;;18.83;;
44110;SDS011;29774;52.664;5.074;2024-03-06T05:36:58;31.10;;;19.63;;
44110;SDS011;29774;52.664;5.074;2024-03-06T05:39:24;35.28;;;20.65;;
44110;SDS011;29774;52.664;5.074;2024-03-06T05:41:50;31.08;;;19.67;;
44110;SDS011;29774;52.664;5.074;2024-03-06T05:44:15;33.65;;;20.52;;
44110;SDS011;29774;52.664;5.074;2024-03-06T05:46:41;35.42;;;20.45;;
44110;SDS011;29774;52.664;5.074;2024-03-06T05:49:06;30.52;;;18.98;;
44110;SDS011;29774;52.664;5.074;2024-03-06T05:51:32;33.92;;;19.77;;
44110;SDS011;29774;52.664;5.074;2024-03-06T05:53:58;31.80;;;21.15;;
44110;SDS011;29774;52.664;5.074;2024-03-06T05:56:23;28.92;;;19.70;;
44110;SDS011;29774;52.664;5.074;2024-03-06T05:58:49;34.13;;;20.00;;
44110;SDS011;29774;52.664;5.074;2024-03-06T06:01:15;33.47;;;20.42;;
44110;SDS011;29774;52.664;5.074;2024-03-06T06:03:44;32.95;;;19.88;;
44110;SDS011;29774;52.664;5.074;2024-03-06T06:06:09;31.90;;;20.73;;
44110;SDS011;29774;52.664;5.074;2024-03-06T06:08:35;32.47;;;20.50;;
44110;SDS011;29774;52.664;5.074;2024-03-06T06:11:01;36.00;;;21.83;;
44110;SDS011;29774;52.664;5.074;2024-03-06T06:13:30;33.45;;;21.38;;
44110;SDS011;29774;52.664;5.074;2024-03-06T06:15:59;36.65;;;21.80;;
44110;SDS011;29774;52.664;5.074;2024-03-06T06:18:27;37.97;;;21.23;;
44110;SDS011;29774;52.664;5.074;2024-03-06T06:20:53;34.20;;;21.13;;
44110;SDS011;29774;52.664;5.074;2024-03-06T06:23:19;43.67;;;22.77;;
44110;SDS011;29774;52.664;5.074;2024-03-06T06:25:45;37.63;;;21.17;;
44110;SDS011;29774;52.664;5.074;2024-03-06T06:28:10;38.22;;;22.20;;
44110;SDS011;29774;52.664;5.074;2024-03-06T06:30:36;35.50;;;21.70;;
44110;SDS011;29774;52.664;5.074;2024-03-06T06:33:03;42.83;;;22.58;;
44110;SDS011;29774;52.664;5.074;2024-03-06T06:35:29;37.40;;;21.60;;
44110;SDS011;29774;52.664;5.074;2024-03-06T06:37:55;37.08;;;21.00;;
44110;SDS011;29774;52.664;5.074;2024-03-06T06:40:20;37.42;;;22.60;;
44110;SDS011;29774;52.664;5.074;2024-03-06T06:42:48;36.92;;;20.80;;
44110;SDS011;29774;52.664;5.074;2024-03-06T06:45:15;37.53;;;21.75;;
44110;SDS011;29774;52.664;5.074;2024-03-06T06:47:41;36.35;;;21.83;;
44110;SDS011;29774;52.664;5.074;2024-03-06T06:50:07;36.50;;;21.55;;
44110;SDS011;29774;52.664;5.074;2024-03-06T06:52:34;36.17;;;21.95;;
44110;SDS011;29774;52.664;5.074;2024-03-06T06:55:00;36.78;;;21.77;;
44110;SDS011;29774;52.664;5.074;2024-03-06T06:57:26;34.92;;;21.98;;
44110;SDS011;29774;52.664;5.074;2024-03-06T06:59:52;39.00;;;24.05;;
44110;SDS011;29774;52.664;5.074;2024-03-06T07:02:18;38.20;;;23.13;;
44110;SDS011;29774;52.664;5.074;2024-03-06T07:04:43;38.47;;;22.40;;
44110;SDS011;29774;52.664;5.074;2024-03-06T07:07:09;40.03;;;23.90;;
44110;SDS011;29774;52.664;5.074;2024-03-06T07:09:35;40.70;;;24.25;;
44110;SDS011;29774;52.664;5.074;2024-03-06T07:12:00;39.42;;;24.02;;
44110;SDS011;29774;52.664;5.074;2024-03-06T07:14:27;42.78;;;24.70;;
44110;SDS011;29774;52.664;5.074;2024-03-06T07:16:53;41.28;;;24.40;;
44110;SDS011;29774;52.664;5.074;2024-03-06T07:19:19;40.95;;;24.80;;
44110;SDS011;29774;52.664;5.074;2024-03-06T07:21:44;49.53;;;25.77;;
44110;SDS011;29774;52.664;5.074;2024-03-06T07:24:10;47.40;;;26.77;;
44110;SDS011;29774;52.664;5.074;2024-03-06T07:26:36;45.10;;;25.88;;
44110;SDS011;29774;52.664;5.074;2024-03-06T07:29:02;46.63;;;27.70;;
44110;SDS011;29774;52.664;5.074;2024-03-06T07:31:28;50.55;;;27.40;;
44110;SDS011;29774;52.664;5.074;2024-03-06T07:33:53;48.83;;;27.00;;
44110;SDS011;29774;52.664;5.074;2024-03-06T07:36:19;49.13;;;28.85;;
44110;SDS011;29774;52.664;5.074;2024-03-06T07:38:45;53.80;;;28.25;;
44110;SDS011;29774;52.664;5.074;2024-03-06T07:41:11;49.97;;;28.15;;
44110;SDS011;29774;52.664;5.074;2024-03-06T07:43:37;50.83;;;30.05;;
44110;SDS011;29774;52.664;5.074;2024-03-06T07:46:03;51.75;;;30.40;;
44110;SDS011;29774;52.664;5.074;2024-03-06T07:48:35;52.95;;;30.67;;
44110;SDS011;29774;52.664;5.074;2024-03-06T07:51:03;52.90;;;29.42;;
44110;SDS011;29774;52.664;5.074;2024-03-06T07:53:29;53.30;;;28.30;;
44110;SDS011;29774;52.664;5.074;2024-03-06T07:55:55;48.83;;;28.10;;
44110;SDS011;29774;52.664;5.074;2024-03-06T07:58:20;52.95;;;28.65;;
44110;SDS011;29774;52.664;5.074;2024-03-06T08:00:46;55.08;;;29.73;;
44110;SDS011;29774;52.664;5.074;2024-03-06T08:03:11;51.72;;;29.00;;
44110;SDS011;29774;52.664;5.074;2024-03-06T08:05:38;51.45;;;29.27;;
44110;SDS011;29774;52.664;5.074;2024-03-06T08:08:04;51.05;;;28.25;;
44110;SDS011;29774;52.664;5.074;2024-03-06T08:10:30;52.33;;;28.38;;
44110;SDS011;29774;52.664;5.074;2024-03-06T08:12:56;53.28;;;29.45;;
44110;SDS011;29774;52.664;5.074;2024-03-06T08:15:22;51.72;;;29.35;;
44110;SDS011;29774;52.664;5.074;2024-03-06T08:17:48;44.75;;;26.58;;
44110;SDS011;29774;52.664;5.074;2024-03-06T08:20:14;47.30;;;27.48;;
44110;SDS011;29774;52.664;5.074;2024-03-06T08:22:41;45.10;;;26.33;;
44110;SDS011;29774;52.664;5.074;2024-03-06T08:25:07;39.65;;;25.63;;
44110;SDS011;29774;52.664;5.074;2024-03-06T08:27:35;36.70;;;23.23;;
44110;SDS011;29774;52.664;5.074;2024-03-06T08:30:04;43.67;;;25.25;;
44110;SDS011;29774;52.664;5.074;2024-03-06T08:32:31;41.83;;;24.73;;
44110;SDS011;29774;52.664;5.074;2024-03-06T08:37:30;41.60;;;24.80;;
44110;SDS011;29774;52.664;5.074;2024-03-06T08:39:57;38.47;;;23.70;;
44110;SDS011;29774;52.664;5.074;2024-03-06T08:42:24;39.72;;;24.75;;
44110;SDS011;29774;52.664;5.074;2024-03-06T08:44:49;38.97;;;25.00;;
44110;SDS011;29774;52.664;5.074;2024-03-06T08:47:15;36.03;;;22.67;;
44110;SDS011;29774;52.664;5.074;2024-03-06T08:49:40;34.67;;;21.65;;
44110;SDS011;29774;52.664;5.074;2024-03-06T08:52:06;33.13;;;20.60;;
44110;SDS011;29774;52.664;5.074;2024-03-06T08:54:32;33.90;;;23.58;;
44110;SDS011;29774;52.664;5.074;2024-03-06T08:56:57;37.25;;;23.23;;
44110;SDS011;29774;52.664;5.074;2024-03-06T08:59:24;35.85;;;21.58;;
44110;SDS011;29774;52.664;5.074;2024-03-06T09:01:51;34.00;;;22.85;;
44110;SDS011;29774;52.664;5.074;2024-03-06T09:04:19;31.02;;;20.65;;
44110;SDS011;29774;52.664;5.074;2024-03-06T09:06:44;32.90;;;22.05;;
44110;SDS011;29774;52.664;5.074;2024-03-06T09:09:10;33.10;;;21.35;;
44110;SDS011;29774;52.664;5.074;2024-03-06T09:11:39;35.45;;;22.25;;
44110;SDS011;29774;52.664;5.074;2024-03-06T09:14:07;37.03;;;21.95;;
44110;SDS011;29774;52.664;5.074;2024-03-06T09:16:34;39.42;;;24.00;;
44110;SDS011;29774;52.664;5.074;2024-03-06T09:19:00;36.95;;;23.92;;
44110;SDS011;29774;52.664;5.074;2024-03-06T09:21:26;39.22;;;24.20;;
44110;SDS011;29774;52.664;5.074;2024-03-06T09:23:52;38.85;;;24.35;;
44110;SDS011;29774;52.664;5.074;2024-03-06T09:26:17;38.15;;;24.05;;
44110;SDS011;29774;52.664;5.074;2024-03-06T09:28:43;35.53;;;23.23;;
44110;SDS011;29774;52.664;5.074;2024-03-06T09:31:08;39.42;;;24.25;;
44110;SDS011;29774;52.664;5.074;2024-03-06T09:33:34;36.10;;;24.60;;
44110;SDS011;29774;52.664;5.074;2024-03-06T09:36:00;33.45;;;23.58;;
44110;SDS011;29774;52.664;5.074;2024-03-06T09:38:25;38.88;;;24.15;;
44110;SDS011;29774;52.664;5.074;2024-03-06T09:40:51;36.58;;;23.40;;
44110;SDS011;29774;52.664;5.074;2024-03-06T09:43:20;39.70;;;24.13;;
44110;SDS011;29774;52.664;5.074;2024-03-06T09:45:46;38.20;;;22.90;;
44110;SDS011;29774;52.664;5.074;2024-03-06T09:48:15;37.25;;;25.27;;
44110;SDS011;29774;52.664;5.074;2024-03-06T09:50:45;35.25;;;23.13;;
44110;SDS011;29774;52.664;5.074;2024-03-06T09:53:15;39.03;;;23.80;;
44110;SDS011;29774;52.664;5.074;2024-03-06T09:55:41;34.40;;;21.95;;
44110;SDS011;29774;52.664;5.074;2024-03-06T09:58:07;32.08;;;21.80;;
44110;SDS011;29774;52.664;5.074;2024-03-06T10:00:36;33.95;;;22.00;;
44110;SDS011;29774;52.664;5.074;2024-03-06T10:03:02;38.25;;;22.33;;
44110;SDS011;29774;52.664;5.074;2024-03-06T10:05:33;36.83;;;23.10;;
44110;SDS011;29774;52.664;5.074;2024-03-06T10:08:02;35.90;;;21.65;;
44110;SDS011;29774;52.664;5.074;2024-03-06T10:10:29;38.60;;;23.88;;
44110;SDS011;29774;52.664;5.074;2024-03-06T10:12:55;41.83;;;25.70;;
44110;SDS011;29774;52.664;5.074;2024-03-06T10:15:25;42.67;;;25.65;;
44110;SDS011;29774;52.664;5.074;2024-03-06T10:18:00;36.60;;;22.73;;
44110;SDS011;29774;52.664;5.074;2024-03-06T10:20:36;35.13;;;23.67;;
44110;SDS011;29774;52.664;5.074;2024-03-06T10:23:02;32.35;;;22.25;;
44110;SDS011;29774;52.664;5.074;2024-03-06T10:25:28;34.58;;;20.83;;
44110;SDS011;29774;52.664;5.074;2024-03-06T10:28:10;37.47;;;21.88;;
44110;SDS011;29774;52.664;5.074;2024-03-06T10:30:37;34.67;;;21.75;;
44110;SDS011;29774;52.664;5.074;2024-03-06T10:33:07;31.17;;;21.70;;
44110;SDS011;29774;52.664;5.074;2024-03-06T10:35:33;32.05;;;20.80;;
44110;SDS011;29774;52.664;5.074;2024-03-06T10:38:02;32.58;;;20.80;;
44110;SDS011;29774;52.664;5.074;2024-03-06T10:40:33;31.70;;;20.75;;
44110;SDS011;29774;52.664;5.074;2024-03-06T10:43:00;36.72;;;22.52;;
44110;SDS011;29774;52.664;5.074;2024-03-06T10:45:40;30.17;;;19.35;;
44110;SDS011;29774;52.664;5.074;2024-03-06T10:48:13;30.85;;;20.83;;
44110;SDS011;29774;52.664;5.074;2024-03-06T10:50:40;30.63;;;20.38;;
44110;SDS011;29774;52.664;5.074;2024-03-06T10:53:10;33.72;;;21.30;;
44110;SDS011;29774;52.664;5.074;2024-03-06T10:55:37;36.58;;;22.38;;
44110;SDS011;29774;52.664;5.074;2024-03-06T10:58:07;33.80;;;21.27;;
44110;SDS011;29774;52.664;5.074;2024-03-06T11:00:37;33.92;;;21.67;;
44110;SDS011;29774;52.664;5.074;2024-03-06T11:03:08;33.85;;;21.15;;
44110;SDS011;29774;52.664;5.074;2024-03-06T11:05:40;29.95;;;20.85;;
44110;SDS011;29774;52.664;5.074;2024-03-06T11:10:34;30.98;;;20.77;;
44110;SDS011;29774;52.664;5.074;2024-03-06T11:13:01;31.70;;;20.30;;
44110;SDS011;29774;52.664;5.074;2024-03-06T11:15:28;26.63;;;16.92;;
44110;SDS011;29774;52.664;5.074;2024-03-06T11:17:54;28.75;;;18.63;;
44110;SDS011;29774;52.664;5.074;2024-03-06T11:20:22;28.42;;;19.13;;
44110;SDS011;29774;52.664;5.074;2024-03-06T11:28:22;25.27;;;18.27;;
44110;SDS011;29774;52.664;5.074;2024-03-06T11:33:53;25.20;;;16.98;;
44110;SDS011;29774;52.664;5.074;2024-03-06T11:36:27;24.60;;;17.58;;
44110;SDS011;29774;52.664;5.074;2024-03-06T11:39:02;23.95;;;16.45;;
44110;SDS011;29774;52.664;5.074;2024-03-06T11:41:51;24.98;;;15.75;;
44110;SDS011;29774;52.664;5.074;2024-03-06T11:44:17;23.90;;;16.13;;
44110;SDS011;29774;52.664;5.074;2024-03-06T11:46:48;24.88;;;16.85;;
44110;SDS011;29774;52.664;5.074;2024-03-06T11:49:28;22.80;;;16.40;;
44110;SDS011;29774;52.664;5.074;2024-03-06T11:52:03;22.75;;;16.15;;
44110;SDS011;29774;52.664;5.074;2024-03-06T11:54:30;18.90;;;13.38;;
44110;SDS011;29774;52.664;5.074;2024-03-06T11:56:58;13.85;;;9.68;;
44110;SDS011;29774;52.664;5.074;2024-03-06T11:59:26;22.98;;;16.20;;
44110;SDS011;29774;52.664;5.074;2024-03-06T12:01:53;19.88;;;14.35;;
44110;SDS011;29774;52.664;5.074;2024-03-06T12:04:22;25.83;;;17.23;;
44110;SDS011;29774;52.664;5.074;2024-03-06T12:06:49;22.95;;;14.60;;
44110;SDS011;29774;52.664;5.074;2024-03-06T12:09:15;20.10;;;15.00;;
44110;SDS011;29774;52.664;5.074;2024-03-06T12:11:41;21.70;;;14.43;;
44110;SDS011;29774;52.664;5.074;2024-03-06T12:14:12;23.33;;;16.65;;
44110;SDS011;29774;52.664;5.074;2024-03-06T12:16:39;22.38;;;15.88;;
44110;SDS011;29774;52.664;5.074;2024-03-06T12:19:05;22.27;;;16.70;;
44110;SDS011;29774;52.664;5.074;2024-03-06T12:21:31;19.00;;;14.43;;
44110;SDS011;29774;52.664;5.074;2024-03-06T12:24:10;22.67;;;16.92;;
44110;SDS011;29774;52.664;5.074;2024-03-06T12:26:36;21.15;;;15.48;;
44110;SDS011;29774;52.664;5.074;2024-03-06T12:31:31;22.23;;;13.85;;
44110;SDS011;29774;52.664;5.074;2024-03-06T12:33:59;20.73;;;15.20;;
44110;SDS011;29774;52.664;5.074;2024-03-06T12:36:27;16.38;;;12.13;;
44110;SDS011;29774;52.664;5.074;2024-03-06T12:38:55;19.98;;;14.60;;
44110;SDS011;29774;52.664;5.074;2024-03-06T12:41:21;23.83;;;15.40;;
44110;SDS011;29774;52.664;5.074;2024-03-06T12:43:47;19.77;;;15.23;;
44110;SDS011;29774;52.664;5.074;2024-03-06T12:46:12;21.15;;;14.48;;
44110;SDS011;29774;52.664;5.074;2024-03-06T12:48:38;23.25;;;16.10;;
44110;SDS011;29774;52.664;5.074;2024-03-06T12:51:04;20.23;;;14.48;;
44110;SDS011;29774;52.664;5.074;2024-03-06T12:53:30;21.60;;;15.68;;
44110;SDS011;29774;52.664;5.074;2024-03-06T12:55:57;21.15;;;15.07;;
44110;SDS011;29774;52.664;5.074;2024-03-06T12:58:23;22.77;;;14.60;;
44110;SDS011;29774;52.664;5.074;2024-03-06T13:00:49;23.60;;;15.77;;
44110;SDS011;29774;52.664;5.074;2024-03-06T13:03:17;20.45;;;15.55;;
44110;SDS011;29774;52.664;5.074;2024-03-06T13:05:43;19.65;;;15.65;;
44110;SDS011;29774;52.664;5.074;2024-03-06T13:08:09;21.45;;;16.38;;
44110;SDS011;29774;52.664;5.074;2024-03-06T13:10:38;22.50;;;16.05;;
44110;SDS011;29774;52.664;5.074;2024-03-06T13:13:03;26.42;;;17.45;;
44110;SDS011;29774;52.664;5.074;2024-03-06T13:15:29;23.92;;;16.60;;
44110;SDS011;29774;52.664;5.074;2024-03-06T13:17:55;19.25;;;14.90;;
44110;SDS011;29774;52.664;5.074;2024-03-06T13:20:21;20.58;;;14.45;;
44110;SDS011;29774;52.664;5.074;2024-03-06T13:22:46;23.83;;;16.35;;
44110;SDS011;29774;52.664;5.074;2024-03-06T13:25:12;23.73;;;14.88;;
44110;SDS011;29774;52.664;5.074;2024-03-06T13:27:38;26.05;;;16.75;;
44110;SDS011;29774;52.664;5.074;2024-03-06T13:30:03;23.55;;;16.15;;
44110;SDS011;29774;52.664;5.074;2024-03-06T13:32:32;23.48;;;16.35;;
44110;SDS011;29774;52.664;5.074;2024-03-06T13:34:58;23.70;;;16.63;;
44110;SDS011;29774;52.664;5.074;2024-03-06T13:37:24;23.33;;;16.48;;
44110;SDS011;29774;52.664;5.074;2024-03-06T13:39:50;23.00;;;14.88;;
44110;SDS011;29774;52.664;5.074;2024-03-06T13:42:17;27.88;;;16.85;;
44110;SDS011;29774;52.664;5.074;2024-03-06T13:44:43;21.67;;;15.05;;
44110;SDS011;29774;52.664;5.074;2024-03-06T13:47:14;21.42;;;15.38;;
44110;SDS011;29774;52.664;5.074;2024-03-06T13:49:41;23.77;;;15.43;;
44110;SDS011;29774;52.664;5.074;2024-03-06T13:52:07;24.42;;;16.13;;
44110;SDS011;29774;52.664;5.074;2024-03-06T13:54:38;24.35;;;16.90;;
44110;SDS011;29774;52.664;5.074;2024-03-06T13:57:06;28.20;;;16.77;;
44110;SDS011;29774;52.664;5.074;2024-03-06T13:59:32;23.58;;;15.73;;
44110;SDS011;29774;52.664;5.074;2024-03-06T14:01:59;22.88;;;17.00;;
44110;SDS011;29774;52.664;5.074;2024-03-06T14:04:25;23.92;;;15.70;;
44110;SDS011;29774;52.664;5.074;2024-03-06T14:06:51;24.73;;;16.45;;
44110;SDS011;29774;52.664;5.074;2024-03-06T14:09:17;19.83;;;14.05;;
44110;SDS011;29774;52.664;5.074;2024-03-06T14:11:42;22.25;;;15.57;;
44110;SDS011;29774;52.664;5.074;2024-03-06T14:14:08;23.08;;;16.63;;
44110;SDS011;29774;52.664;5.074;2024-03-06T14:16:34;26.58;;;16.00;;
44110;SDS011;29774;52.664;5.074;2024-03-06T14:19:00;23.45;;;15.65;;
44110;SDS011;29774;52.664;5.074;2024-03-06T14:21:26;23.85;;;16.63;;
44110;SDS011;29774;52.664;5.074;2024-03-06T14:23:52;21.95;;;16.30;;
44110;SDS011;29774;52.664;5.074;2024-03-06T14:26:17;23.38;;;16.30;;
44110;SDS011;29774;52.664;5.074;2024-03-06T14:28:43;24.02;;;17.13;;
44110;SDS011;29774;52.664;5.074;2024-03-06T14:31:09;24.92;;;15.52;;
44110;SDS011;29774;52.664;5.074;2024-03-06T14:33:35;23.10;;;15.98;;
44110;SDS011;29774;52.664;5.074;2024-03-06T14:36:03;21.30;;;16.17;;
44110;SDS011;29774;52.664;5.074;2024-03-06T14:38:28;21.65;;;15.85;;
44110;SDS011;29774;52.664;5.074;2024-03-06T14:40:54;22.73;;;15.05;;